Time;durP1;ratioP1;P1;durP2;ratioP2;P2;SDS_P1;SDS_P2;PMS_P1;PMS_P2;Temp;Humidity;BMP_temperature;BMP_pressure;BME280_temperature;BME280_humidity;BME280_pressure;Samples;Min_cycle;Max_cycle;Signal;HPM_P1;HPM_P2
2022/01/19 00:00:38;;;;;;;1.47;0.73;;;;;;;2.37;49.07;100344.09;5094913;28;20645;-89
2022/01/19 00:03:04;;;;;;;0.83;0.50;;;;;;;2.37;49.18;100344.09;5094006;28;20184;-86
2022/01/19 00:05:32;;;;;;;1.67;1.20;;;;;;;2.44;48.88;100338.06;5093906;28;20651;-89
2022/01/19 00:07:58;;;;;;;1.03;0.40;;;;;;;2.44;48.81;100353.56;5093863;28;20192;-88
2022/01/19 00:10:27;;;;;;;3.70;1.37;;;;;;;2.30;48.75;100368.25;5095082;28;20181;-86
2022/01/19 00:12:57;;;;;;;3.03;1.90;;;;;;;2.30;49.34;100365.69;5093749;28;20184;-88
2022/01/19 00:15:24;;;;;;;2.33;1.07;;;;;;;2.34;49.89;100362.22;5094676;28;20183;-87
2022/01/19 00:17:54;;;;;;;1.37;0.80;;;;;;;2.31;49.55;100376.00;5094645;28;20191;-89
2022/01/19 00:20:20;;;;;;;0.80;0.80;;;;;;;2.18;49.66;100369.09;5093718;28;20468;-90
2022/01/19 00:22:46;;;;;;;1.23;0.50;;;;;;;2.23;49.93;100375.13;5094874;28;20487;-87
2022/01/19 00:25:11;;;;;;;1.07;0.97;;;;;;;2.39;49.29;100374.28;5094803;28;20182;-90
2022/01/19 00:27:37;;;;;;;2.57;1.90;;;;;;;2.18;50.01;100386.34;5094549;28;20195;-88
2022/01/19 00:30:03;;;;;;;0.60;0.60;;;;;;;2.37;49.40;100393.25;5094476;28;20589;-88
2022/01/19 00:32:29;;;;;;;0.60;0.60;;;;;;;2.42;49.72;100389.81;5093435;28;20683;-89
2022/01/19 00:34:54;;;;;;;1.70;1.00;;;;;;;2.41;49.02;100398.44;5093468;28;20697;-89
2022/01/19 00:37:20;;;;;;;1.27;0.73;;;;;;;2.32;49.74;100387.22;5093459;28;20275;-90
2022/01/19 00:39:45;;;;;;;1.43;1.27;;;;;;;2.50;49.20;100395.00;5093181;28;20249;-91
2022/01/19 00:42:11;;;;;;;1.00;0.60;;;;;;;2.61;48.97;100405.34;5094114;28;20200;-91
2022/01/19 00:44:38;;;;;;;1.30;0.90;;;;;;;2.67;49.08;100405.34;5093036;28;20637;-90
2022/01/19 00:47:04;;;;;;;1.50;1.00;;;;;;;2.84;48.47;100417.41;5093078;28;20252;-91
2022/01/19 00:49:29;;;;;;;0.80;0.60;;;;;;;2.79;47.81;100423.44;5093179;28;20282;-88
2022/01/19 00:51:55;;;;;;;1.73;0.97;;;;;;;2.59;48.70;100423.47;5094431;28;20309;-89
2022/01/19 00:54:20;;;;;;;0.67;0.67;;;;;;;2.67;48.43;100424.34;5093148;28;20184;-87
2022/01/19 00:56:45;;;;;;;2.77;0.73;;;;;;;2.70;48.57;100411.38;5093974;28;20173;-90
2022/01/19 00:59:11;;;;;;;3.47;1.50;;;;;;;2.94;47.56;100413.94;5092933;28;20274;-89
2022/01/19 01:01:36;;;;;;;1.90;1.20;;;;;;;2.89;47.62;100410.50;5093786;28;20280;-89
2022/01/19 01:04:02;;;;;;;1.63;0.83;;;;;;;2.88;47.90;100408.75;5094112;28;20263;-89
2022/01/19 01:06:28;;;;;;;3.00;0.77;;;;;;;2.78;47.73;100404.47;5092910;28;20270;-89
2022/01/19 01:08:54;;;;;;;1.20;1.10;;;;;;;2.96;47.40;100399.25;5092802;28;20670;-89
2022/01/19 01:11:28;;;;;;;3.10;1.67;;;;;;;3.04;47.20;100397.50;5092829;28;20267;-89
2022/01/19 01:16:39;;;;;;;2.10;1.57;;;;;;;2.56;48.92;100405.34;5093667;28;20223;-92
2022/01/19 01:19:08;;;;;;;3.87;1.73;;;;;;;2.38;49.37;100420.88;5093880;28;20167;-92
2022/01/19 01:21:34;;;;;;;1.27;0.90;;;;;;;2.44;49.07;100423.44;5092531;28;20196;-90
2022/01/19 01:24:01;;;;;;;1.57;0.50;;;;;;;2.51;48.63;100427.78;5093529;28;20176;-87
2022/01/19 01:26:27;;;;;;;0.97;0.87;;;;;;;2.44;48.57;100439.84;5092521;28;20191;-90
2022/01/19 01:28:53;;;;;;;3.33;1.00;;;;;;;2.62;48.78;100435.56;5093449;28;20177;-91
2022/01/19 01:31:19;;;;;;;0.67;0.53;;;;;;;2.45;49.07;100427.78;5094017;28;20173;-89
2022/01/19 01:33:44;;;;;;;2.63;1.60;;;;;;;2.39;49.01;100431.22;5094021;28;20490;-89
2022/01/19 01:36:10;;;;;;;3.87;1.30;;;;;;;2.21;49.10;100438.09;5092754;28;20188;-89
2022/01/19 01:38:39;;;;;;;0.97;0.90;;;;;;;2.24;49.46;100432.91;5092398;28;20224;-90
2022/01/19 01:41:06;;;;;;;2.13;0.60;;;;;;;2.41;49.09;100436.41;5092202;28;20208;-90
2022/01/19 01:43:34;;;;;;;0.70;0.57;;;;;;;2.36;49.33;100443.28;5093271;28;20606;-93
2022/01/19 01:46:05;;;;;;;0.97;0.70;;;;;;;2.26;50.29;100434.66;5093009;28;20259;-89
2022/01/19 01:48:31;;;;;;;1.83;0.60;;;;;;;2.33;49.66;100444.13;5092416;28;20177;-88
2022/01/19 01:53:41;;;;;;;3.10;1.00;;;;;;;2.28;49.77;100442.44;5093566;28;20538;-89
2022/01/19 01:56:13;;;;;;;0.93;0.83;;;;;;;2.35;50.32;100451.91;5093271;28;20184;-92
2022/01/19 01:58:42;;;;;;;5.43;1.10;;;;;;;2.30;49.76;100441.56;5097986;28;20196;-89
2022/01/19 02:01:08;;;;;;;0.60;0.60;;;;;;;2.28;49.52;100434.66;5097511;28;20695;-88
2022/01/19 02:03:39;;;;;;;5.30;1.63;;;;;;;2.26;49.86;100436.34;5097256;28;20192;-90
2022/01/19 02:09:08;;;;;;;1.70;0.60;;;;;;;2.52;49.23;100416.53;5097215;28;20188;-87
2022/01/19 02:23:18;;;;;;;2.00;0.93;;;;;;;2.11;50.34;100410.47;5096977;28;20171;-94
2022/01/19 02:25:45;;;;;;;0.50;0.50;;;;;;;2.20;50.55;100410.50;5097171;28;20160;-89
2022/01/19 02:41:40;;;;;;;2.00;0.63;;;;;;;2.12;50.56;100417.38;5097250;28;20304;-88
2022/01/19 02:44:09;;;;;;;7.73;2.37;;;;;;;2.29;50.27;100424.31;5097381;28;20200;-91
2022/01/19 02:49:21;;;;;;;1.00;0.80;;;;;;;2.42;49.89;100423.47;5066040;28;20195;-91
2022/01/19 02:51:50;;;;;;;4.60;1.53;;;;;;;2.49;49.36;100429.47;5096471;28;20406;-89
2022/01/19 02:54:24;;;;;;;2.03;1.27;;;;;;;2.19;51.07;100419.97;5096557;28;20182;-90
2022/01/19 02:56:54;;;;;;;0.73;0.63;;;;;;;2.25;50.50;100424.31;5096717;28;20187;-92
2022/01/19 02:59:31;;;;;;;0.60;0.40;;;;;;;1.93;51.06;100424.25;5095503;28;20685;-93
2022/01/19 03:10:09;;;;;;;3.70;0.90;;;;;;;2.13;50.73;100419.09;5095912;28;20187;-90
2022/01/19 03:12:35;;;;;;;2.00;1.27;;;;;;;2.29;50.37;100418.25;5096161;28;20934;-90
2022/01/19 03:15:01;;;;;;;1.33;1.23;;;;;;;2.35;50.07;100426.03;5095013;28;20262;-91
2022/01/19 03:17:27;;;;;;;1.23;0.73;;;;;;;2.50;49.51;100428.63;5095170;28;20195;-90
2022/01/19 03:19:52;;;;;;;1.53;1.10;;;;;;;2.45;49.58;100433.81;5095542;28;20227;-90
2022/01/19 03:22:21;;;;;;;2.40;1.07;;;;;;;2.44;49.54;100429.50;5095551;28;20192;-92
2022/01/19 03:24:51;;;;;;;2.30;1.40;;;;;;;2.36;49.64;100438.09;5095231;28;20176;-88
2022/01/19 03:27:17;;;;;;;1.23;0.90;;;;;;;2.14;50.50;100434.63;5095799;28;20184;-89
2022/01/19 03:29:43;;;;;;;0.83;0.50;;;;;;;2.18;50.60;100433.75;5094807;28;20478;-91
2022/01/19 03:32:10;;;;;;;2.00;1.00;;;;;;;2.23;50.06;100431.19;5096359;28;20407;-91
2022/01/19 03:34:35;;;;;;;1.63;1.10;;;;;;;2.10;50.11;100439.78;5095555;28;20537;-89
2022/01/19 03:37:02;;;;;;;2.87;1.23;;;;;;;2.12;50.41;100435.50;5095565;28;20182;-90
2022/01/19 03:39:27;;;;;;;5.03;1.13;;;;;;;2.23;50.33;100446.69;5094603;28;20341;-89
2022/01/19 03:41:53;;;;;;;0.97;0.53;;;;;;;1.97;50.61;100445.78;5095432;28;20684;-90
2022/01/19 03:44:18;;;;;;;1.47;0.90;;;;;;;2.02;50.78;100452.69;5095791;28;20601;-92
2022/01/19 03:46:56;;;;;;;1.53;1.27;;;;;;;1.90;50.69;100446.63;5094522;28;20179;-90
2022/01/19 03:49:25;;;;;;;1.60;1.20;;;;;;;1.78;50.75;100450.06;5095500;28;20172;-90
2022/01/19 03:51:53;;;;;;;1.13;0.70;;;;;;;1.83;51.02;100451.75;5095229;28;20191;-91
2022/01/19 03:54:19;;;;;;;2.13;1.33;;;;;;;1.91;50.86;100446.66;5095486;28;20906;-89
2022/01/19 03:56:44;;;;;;;3.70;1.20;;;;;;;1.90;50.92;100451.78;5095440;28;20917;-90
2022/01/19 03:59:10;;;;;;;2.50;1.17;;;;;;;1.98;50.33;100455.28;5094182;28;20472;-90
2022/01/19 04:01:35;;;;;;;3.27;0.77;;;;;;;1.95;50.41;100455.25;5095314;28;20203;-90
2022/01/19 04:06:39;;;;;;;0.77;0.70;;;;;;;1.71;51.49;100482.75;5095275;28;20643;-89
2022/01/19 04:09:05;;;;;;;3.50;1.40;;;;;;;1.75;51.32;100479.34;5095230;28;20225;-91
2022/01/19 04:11:30;;;;;;;0.93;0.70;;;;;;;1.90;50.68;100464.72;5094862;28;20417;-91
2022/01/19 04:16:31;;;;;;;0.67;0.63;;;;;;;1.71;50.97;100472.41;5095612;28;20554;-91
2022/01/19 04:19:23;;;;;;;2.83;0.90;;;;;;;1.70;51.35;100470.66;5094708;28;20415;-89
2022/01/19 04:21:42;;;;;;;1.77;1.13;;;;;;;1.89;50.32;100465.59;5093452;28;20456;-90
2022/01/19 04:24:08;;;;;;;10.70;0.90;;;;;;;1.70;51.25;100467.25;5094860;28;20420;-88
2022/01/19 04:26:33;;;;;;;0.93;0.70;;;;;;;1.45;51.83;100474.00;5093871;28;20186;-90
2022/01/19 04:28:59;;;;;;;1.50;1.13;;;;;;;1.76;51.30;100470.69;5093889;28;20176;-90
2022/01/19 04:31:24;;;;;;;0.60;0.60;;;;;;;1.74;50.85;100477.59;5094418;28;20631;-89
2022/01/19 04:33:50;;;;;;;2.23;1.03;;;;;;;1.96;50.80;100469.91;5094476;28;20172;-90
2022/01/19 04:36:30;;;;;;;1.83;1.07;;;;;;;1.95;50.40;100478.53;5093692;28;20263;-89
2022/01/19 05:09:22;;;;;;;7.63;1.80;;;;;;;1.57;52.13;100514.56;5093802;28;20398;-89
2022/01/19 05:13:53;;;;;;;2.80;1.00;;;;;;;1.36;52.36;100530.81;5093758;28;20405;-88
2022/01/19 05:16:23;;;;;;;5.13;0.73;;;;;;;1.64;52.44;100524.94;5093908;28;20421;-90
2022/01/19 05:18:49;;;;;;;1.83;0.93;;;;;;;1.65;52.06;100538.72;5093670;28;20190;-89
2022/01/19 05:21:15;;;;;;;1.37;1.23;;;;;;;1.35;52.69;100531.63;5093862;28;21010;-90
2022/01/19 05:23:41;;;;;;;3.03;1.63;;;;;;;1.49;53.04;100537.78;5093494;28;20424;-90
2022/01/19 05:26:07;;;;;;;1.07;0.40;;;;;;;1.58;51.87;100536.94;5093520;28;20451;-90
2022/01/19 05:28:32;;;;;;;1.07;0.83;;;;;;;1.57;51.67;100536.06;5093816;28;20184;-89
2022/01/19 05:30:58;;;;;;;1.27;0.57;;;;;;;1.53;52.14;100536.91;5093233;28;20178;-90
2022/01/19 05:33:23;;;;;;;0.87;0.73;;;;;;;1.45;51.80;100536.00;5092458;28;20187;-90
2022/01/19 05:35:49;;;;;;;1.07;0.83;;;;;;;1.42;52.31;100538.56;5093347;28;20179;-88
2022/01/19 05:38:14;;;;;;;1.87;0.50;;;;;;;1.46;52.13;100542.03;5093361;28;20179;-90
2022/01/19 05:40:40;;;;;;;1.40;0.90;;;;;;;1.45;52.08;100536.00;5092356;28;20663;-89
2022/01/19 05:43:06;;;;;;;2.00;0.90;;;;;;;1.56;52.35;100539.53;5093251;28;20208;-91
2022/01/19 05:45:32;;;;;;;0.60;0.60;;;;;;;1.44;52.35;100531.69;5093422;28;20451;-90
2022/01/19 05:47:58;;;;;;;1.53;1.07;;;;;;;1.49;52.88;100542.06;5093266;28;20685;-90
2022/01/19 05:50:24;;;;;;;1.40;0.60;;;;;;;1.46;52.37;100539.47;5092510;28;20187;-92
2022/01/19 05:52:50;;;;;;;1.37;0.77;;;;;;;1.51;52.37;100541.22;5093604;28;20248;-90
2022/01/19 05:55:16;;;;;;;1.03;0.77;;;;;;;1.79;51.90;100542.22;5092324;28;20615;-92
2022/01/19 05:57:41;;;;;;;9.10;1.10;;;;;;;1.71;52.13;100556.84;5093843;28;20431;-90
2022/01/19 06:00:08;;;;;;;1.20;0.60;;;;;;;1.78;52.02;100551.69;5093333;28;20178;-90
2022/01/19 06:02:35;;;;;;;6.70;0.77;;;;;;;1.82;51.66;100553.47;5093370;28;20175;-90
2022/01/19 06:05:00;;;;;;;9.83;0.90;;;;;;;1.97;51.42;100546.63;5093316;28;20569;-89
2022/01/19 06:07:29;;;;;;;0.80;0.60;;;;;;;1.73;51.87;100562.91;5092992;28;20437;-89
2022/01/19 06:10:04;;;;;;;0.70;0.63;;;;;;;1.71;51.51;100557.69;5092953;28;20239;-89
2022/01/19 06:12:30;;;;;;;1.23;0.60;;;;;;;1.65;51.70;100565.41;5093310;28;20149;-89
2022/01/19 06:14:55;;;;;;;6.53;0.90;;;;;;;1.94;51.04;100570.75;5091986;28;20440;-89
2022/01/19 06:17:21;;;;;;;8.03;1.80;;;;;;;2.05;50.50;100568.19;5092013;28;20183;-89
2022/01/19 06:19:48;;;;;;;2.77;1.30;;;;;;;1.98;51.52;100584.56;5092967;28;20253;-89
2022/01/19 06:22:14;;;;;;;1.40;0.90;;;;;;;1.96;50.84;100587.16;5091938;28;20361;-89
2022/01/19 06:24:40;;;;;;;2.03;0.90;;;;;;;1.96;51.29;100581.97;5092984;28;20304;-90
2022/01/19 06:27:06;;;;;;;1.70;1.17;;;;;;;1.84;51.31;100587.06;5092962;28;20500;-89
2022/01/19 06:29:32;;;;;;;2.37;1.83;;;;;;;2.36;50.89;100573.50;5092476;28;20425;-90
2022/01/19 06:31:58;;;;;;;0.93;0.73;;;;;;;2.76;49.40;100566.72;5092470;28;20217;-89
2022/01/19 06:34:23;;;;;;;3.73;1.07;;;;;;;3.16;48.30;100562.44;5092168;28;20189;-89
2022/01/19 06:36:51;;;;;;;2.43;0.73;;;;;;;3.20;47.32;100566.72;5093644;28;20190;-89
2022/01/19 06:39:17;;;;;;;3.27;0.90;;;;;;;3.20;47.34;100566.72;5091908;28;20229;-89
2022/01/19 06:41:42;;;;;;;1.67;0.73;;;;;;;3.23;48.17;100576.22;5091577;28;20305;-89
2022/01/19 06:44:08;;;;;;;2.77;1.43;;;;;;;3.28;47.43;100574.50;5092048;28;20302;-89
2022/01/19 06:46:34;;;;;;;1.47;0.80;;;;;;;3.41;47.13;100584.00;5095653;28;20196;-89
2022/01/19 06:48:59;;;;;;;2.87;1.47;;;;;;;3.84;47.18;100572.72;5096266;28;20176;-88
2022/01/19 06:51:25;;;;;;;13.13;0.93;;;;;;;3.85;46.26;100583.97;5096341;28;20173;-89
2022/01/19 06:53:52;;;;;;;3.10;1.80;;;;;;;3.83;46.54;100583.94;5095448;28;20208;-90
2022/01/19 06:56:18;;;;;;;0.97;0.67;;;;;;;3.82;46.46;100595.19;5095569;28;20184;-88
2022/01/19 06:58:44;;;;;;;1.50;0.80;;;;;;;4.05;46.28;100593.41;5096852;28;20251;-88
2022/01/19 07:01:09;;;;;;;2.93;1.33;;;;;;;3.89;46.55;100596.03;5095660;28;20287;-90
2022/01/19 07:03:34;;;;;;;1.77;1.13;;;;;;;3.83;46.49;100601.22;5095558;28;20180;-91
2022/01/19 07:06:01;;;;;;;0.90;0.80;;;;;;;4.14;46.00;100588.16;5096489;28;20200;-91
2022/01/19 07:08:27;;;;;;;1.20;0.97;;;;;;;4.41;45.29;100588.94;5095121;28;20173;-90
2022/01/19 07:10:53;;;;;;;1.00;0.77;;;;;;;4.41;44.55;100575.94;5095055;28;20237;-88
2022/01/19 07:13:19;;;;;;;2.27;0.90;;;;;;;4.42;44.94;100569.91;5095135;28;20176;-88
2022/01/19 07:15:45;;;;;;;1.13;0.70;;;;;;;4.34;44.85;100581.19;5095925;28;20203;-89
2022/01/19 07:18:11;;;;;;;1.67;1.03;;;;;;;4.02;45.77;100571.78;5095176;28;20207;-87
2022/01/19 07:20:36;;;;;;;1.60;1.40;;;;;;;4.08;45.76;100580.44;5096059;28;20196;-91
2022/01/19 07:23:02;;;;;;;0.90;0.57;;;;;;;4.13;45.47;100580.41;5095936;28;20180;-90
2022/01/19 07:25:31;;;;;;;5.20;1.13;;;;;;;4.12;44.94;100579.53;5095441;28;20180;-88
2022/01/19 07:27:57;;;;;;;0.60;0.60;;;;;;;3.83;45.70;100591.72;5095047;28;20272;-90
2022/01/19 07:30:24;;;;;;;1.53;0.87;;;;;;;3.72;45.89;100593.50;5095989;28;20610;-90
2022/01/19 07:32:51;;;;;;;0.63;0.33;;;;;;;3.96;45.34;100600.31;5095360;28;20607;-88
2022/01/19 07:35:17;;;;;;;1.60;1.13;;;;;;;4.28;44.79;100594.19;5094606;28;20625;-90
2022/01/19 07:37:43;;;;;;;0.80;0.80;;;;;;;4.29;45.06;100593.31;5094670;28;20191;-88
2022/01/19 07:40:09;;;;;;;1.30;0.90;;;;;;;4.30;44.85;100589.84;5095777;28;20216;-90
2022/01/19 07:42:34;;;;;;;0.83;0.77;;;;;;;3.99;45.23;100598.59;5094743;28;20200;-91
2022/01/19 07:45:00;;;;;;;4.97;1.90;;;;;;;3.97;45.62;100595.16;5096277;28;20229;-92
2022/01/19 07:47:28;;;;;;;2.60;1.40;;;;;;;3.76;46.51;100595.19;5094785;28;20176;-90
2022/01/19 07:49:54;;;;;;;1.87;0.70;;;;;;;3.59;46.77;100591.78;5094397;28;20538;-90
2022/01/19 07:52:21;;;;;;;6.03;1.53;;;;;;;3.90;45.95;100596.06;5092181;28;20176;-92
2022/01/19 07:54:46;;;;;;;2.73;1.00;;;;;;;3.56;46.20;100603.00;5093955;28;20222;-93
2022/01/19 07:57:12;;;;;;;12.03;2.67;;;;;;;3.64;46.92;100606.44;5094371;28;20555;-91
2022/01/19 07:59:38;;;;;;;5.70;2.30;;;;;;;4.04;46.59;100602.03;5094440;28;20187;-91
2022/01/19 08:02:03;;;;;;;2.17;1.00;;;;;;;4.51;45.50;100603.63;5094019;28;20220;-89
2022/01/19 08:04:29;;;;;;;0.90;0.60;;;;;;;4.53;45.81;100600.13;5094182;28;20184;-89
2022/01/19 08:06:54;;;;;;;0.60;0.60;;;;;;;4.57;45.48;100600.97;5094567;28;20622;-91
2022/01/19 08:09:25;;;;;;;4.97;1.40;;;;;;;4.78;45.12;100593.94;5094265;28;20198;-91
2022/01/19 08:11:50;;;;;;;1.57;1.07;;;;;;;4.84;44.85;100601.69;5095062;28;20168;-92
2022/01/19 08:14:16;;;;;;;1.40;1.03;;;;;;;4.60;44.67;100591.44;5094261;28;20181;-90
2022/01/19 08:16:42;;;;;;;3.37;1.57;;;;;;;4.70;45.02;100593.13;5094056;28;20180;-91
2022/01/19 08:19:08;;;;;;;1.83;0.93;;;;;;;4.75;45.37;100587.88;5093937;28;20223;-90
2022/01/19 08:21:34;;;;;;;2.57;1.47;;;;;;;4.83;45.01;100597.34;5093828;28;20200;-90
2022/01/19 08:23:59;;;;;;;2.43;1.70;;;;;;;4.93;43.96;100603.34;5094195;28;20187;-89
2022/01/19 08:26:25;;;;;;;3.90;1.10;;;;;;;5.17;44.57;100607.53;5094274;28;20180;-92
2022/01/19 08:28:50;;;;;;;1.10;0.70;;;;;;;5.03;44.49;100611.97;5093962;28;20668;-91
2022/01/19 08:31:16;;;;;;;4.93;0.90;;;;;;;5.05;44.77;100616.28;5094418;28;20627;-91
2022/01/19 08:33:42;;;;;;;5.97;1.13;;;;;;;5.32;44.83;100613.47;5094824;28;20188;-91
2022/01/19 08:36:07;;;;;;;4.20;1.90;;;;;;;5.67;43.78;100617.50;5093439;28;20655;-92
2022/01/19 08:38:33;;;;;;;8.30;1.63;;;;;;;5.66;43.18;100610.59;5094065;28;20181;-91
2022/01/19 08:40:59;;;;;;;4.27;1.40;;;;;;;5.53;43.37;100602.88;5094155;28;20621;-93
2022/01/19 08:43:24;;;;;;;1.83;1.47;;;;;;;5.48;44.05;100593.41;5091937;28;20181;-92
2022/01/19 08:45:51;;;;;;;2.23;1.10;;;;;;;5.43;43.71;100596.03;5093396;28;20635;-92
2022/01/19 08:48:18;;;;;;;3.37;1.33;;;;;;;5.69;43.56;100600.13;5093546;28;20509;-92
2022/01/19 08:50:43;;;;;;;3.60;2.10;;;;;;;5.97;43.25;100586.91;5094786;28;20735;-92
2022/01/19 08:53:09;;;;;;;2.17;1.27;;;;;;;5.89;42.89;100606.06;5093565;28;20282;-93
2022/01/19 08:55:35;;;;;;;3.13;1.67;;;;;;;5.92;42.25;100595.63;5093441;28;20179;-91
2022/01/19 08:58:00;;;;;;;2.70;1.63;;;;;;;6.22;41.65;100590.06;5093352;28;20236;-93
2022/01/19 09:00:26;;;;;;;1.60;1.27;;;;;;;6.33;41.80;100593.41;5091496;28;20538;-92
2022/01/19 09:02:51;;;;;;;3.70;2.03;;;;;;;6.16;42.79;100583.19;5093246;28;20180;-91
2022/01/19 09:05:17;;;;;;;6.70;1.47;;;;;;;6.00;41.99;100579.03;5093036;28;20752;-93
2022/01/19 09:07:43;;;;;;;6.43;1.27;;;;;;;6.06;42.58;100572.91;5092389;28;20192;-92
2022/01/19 09:10:10;;;;;;;2.00;1.13;;;;;;;6.26;41.19;100565.72;5093014;28;20271;-90
2022/01/19 09:12:37;;;;;;;2.67;1.33;;;;;;;6.19;41.36;100566.66;5094025;28;20210;-92
2022/01/19 09:15:12;;;;;;;2.27;2.07;;;;;;;6.29;42.41;100560.47;5093058;28;20183;-92
2022/01/19 09:17:39;;;;;;;2.80;1.30;;;;;;;6.12;41.82;100567.63;5093049;28;20265;-93
2022/01/19 09:20:06;;;;;;;2.33;1.30;;;;;;;6.69;40.76;100572.09;5092870;28;20180;-93
2022/01/19 09:22:32;;;;;;;1.83;1.07;;;;;;;6.99;41.56;100569.91;5092905;28;20232;-94
2022/01/19 09:24:58;;;;;;;0.97;0.53;;;;;;;7.06;40.32;100561.97;5093423;28;20209;-92
2022/01/19 09:27:23;;;;;;;2.60;1.13;;;;;;;7.17;40.65;100553.97;5093969;28;20614;-95
2022/01/19 09:29:49;;;;;;;2.90;1.33;;;;;;;7.23;40.38;100546.91;5093337;28;20184;-93
2022/01/19 09:32:15;;;;;;;2.87;1.23;;;;;;;7.21;39.80;100540.00;5092888;28;20233;-93
2022/01/19 09:34:47;;;;;;;1.70;0.93;;;;;;;7.14;39.77;100543.59;5094036;28;20241;-93
2022/01/19 09:37:13;;;;;;;2.10;1.17;;;;;;;7.03;39.33;100537.69;5093104;28;20157;-93
2022/01/19 09:39:39;;;;;;;1.10;0.60;;;;;;;6.88;39.67;100530.13;5093740;28;20176;-94
2022/01/19 09:42:05;;;;;;;4.33;1.00;;;;;;;6.91;39.11;100532.69;5092736;28;20278;-95
2022/01/19 09:44:31;;;;;;;7.07;1.30;;;;;;;7.11;38.61;100538.44;5092961;28;20173;-92
2022/01/19 09:46:57;;;;;;;2.50;1.13;;;;;;;7.07;37.67;100534.16;5093116;28;20176;-94
2022/01/19 09:49:23;;;;;;;4.83;1.67;;;;;;;7.10;38.23;100527.13;5092721;28;20180;-94
2022/01/19 09:51:51;;;;;;;1.20;0.73;;;;;;;7.02;37.31;100528.16;5093862;28;20520;-94
2022/01/19 09:54:20;;;;;;;7.80;1.20;;;;;;;7.32;38.43;100527.63;5093644;28;20539;-95
2022/01/19 09:56:45;;;;;;;5.10;2.33;;;;;;;7.44;39.34;100517.00;5093023;28;20176;-94
2022/01/19 09:59:15;;;;;;;5.70;1.27;;;;;;;7.05;38.00;100518.53;5092636;28;20182;-92
2022/01/19 10:02:08;;;;;;;1.60;1.07;;;;;;;7.10;39.00;100521.09;5093924;28;20215;-93
2022/01/19 10:04:46;;;;;;;1.60;0.97;;;;;;;7.36;39.26;100524.09;5090919;28;20624;-94
2022/01/19 10:07:27;;;;;;;1.87;0.77;;;;;;;7.35;39.00;100522.38;5092971;28;20195;-96
2022/01/19 10:09:54;;;;;;;1.03;0.70;;;;;;;7.48;37.79;100507.34;5093403;28;20195;-95
2022/01/19 10:18:25;;;;;;;1.83;0.70;;;;;;;7.42;37.58;100477.03;5100094;28;20173;-94
2022/01/19 10:21:13;;;;;;;6.00;1.30;;;;;;;7.27;38.95;100478.19;5097924;28;20574;-94
2022/01/19 10:23:48;;;;;;;7.07;1.67;;;;;;;7.52;37.97;100478.56;5097802;28;20186;-96
2022/01/19 10:26:23;;;;;;;1.90;0.97;;;;;;;8.03;37.78;100477.56;5096924;28;20180;-96
2022/01/19 10:29:00;;;;;;;2.13;1.27;;;;;;;8.21;37.30;100480.66;5097083;28;20164;-94
2022/01/19 10:31:27;;;;;;;3.33;1.03;;;;;;;7.91;38.31;100485.63;5096684;28;20179;-93
2022/01/19 10:34:19;;;;;;;5.40;1.20;;;;;;;8.14;38.45;100476.47;5096333;28;20216;-93
2022/01/19 10:36:52;;;;;;;1.40;1.03;;;;;;;8.51;36.18;100462.59;5096734;28;20621;-93
2022/01/19 10:39:19;;;;;;;2.87;0.70;;;;;;;8.33;36.77;100454.31;5096366;28;20169;-92
2022/01/19 10:42:10;;;;;;;1.40;0.80;;;;;;;8.10;36.16;100457.38;5095932;28;20303;-92
2022/01/19 10:44:41;;;;;;;1.10;0.90;;;;;;;8.39;35.55;100455.03;5096893;28;20259;-91
2022/01/19 10:47:07;;;;;;;4.03;1.23;;;;;;;8.27;36.44;100444.84;5097715;28;20164;-92
2022/01/19 10:49:50;;;;;;;3.13;1.23;;;;;;;8.53;36.63;100457.31;5096704;28;20185;-95
2022/01/19 10:52:36;;;;;;;2.87;1.50;;;;;;;8.61;35.50;100455.38;5096182;28;20188;-96
2022/01/19 10:55:05;;;;;;;2.43;1.30;;;;;;;8.72;35.67;100437.69;5096981;28;20632;-94
2022/01/19 10:57:33;;;;;;;1.90;0.93;;;;;;;8.26;35.54;100440.47;5096206;28;20211;-94
2022/01/19 11:00:18;;;;;;;2.80;0.77;;;;;;;8.53;36.36;100428.56;5096195;28;20181;-94
2022/01/19 11:02:45;;;;;;;4.93;1.30;;;;;;;8.23;36.54;100432.72;5096076;28;20184;-93
2022/01/19 11:05:11;;;;;;;1.93;1.40;;;;;;;8.40;35.27;100430.63;5096306;28;20176;-96
2022/01/19 11:07:37;;;;;;;2.60;1.40;;;;;;;8.50;35.39;100434.75;5096291;28;20249;-96
2022/01/19 11:10:16;;;;;;;7.33;1.77;;;;;;;8.38;35.52;100426.34;5096090;28;20187;-92
2022/01/19 11:12:47;;;;;;;3.93;1.63;;;;;;;8.60;35.98;100420.56;5095884;28;20176;-95
2022/01/19 11:15:21;;;;;;;2.30;1.17;;;;;;;8.64;35.34;100413.50;5094016;28;20195;-95
2022/01/19 11:17:48;;;;;;;1.57;0.97;;;;;;;8.48;36.06;100406.91;5095976;28;20192;-95
2022/01/19 11:20:19;;;;;;;9.00;1.60;;;;;;;8.47;36.01;100399.97;5095479;28;20263;-95
2022/01/19 11:23:26;;;;;;;2.87;1.43;;;;;;;8.63;36.13;100381.28;5095648;28;20176;-92
2022/01/19 11:25:59;;;;;;;2.47;1.20;;;;;;;8.55;36.31;100387.56;5096542;28;20547;-91
2022/01/19 11:28:34;;;;;;;2.77;1.13;;;;;;;8.85;36.19;100378.97;5095302;28;20180;-93
2022/01/19 11:31:08;;;;;;;6.20;1.00;;;;;;;9.12;34.64;100373.00;5094584;28;20533;-94
2022/01/19 11:33:42;;;;;;;3.30;1.77;;;;;;;9.19;34.56;100373.72;5095940;28;20234;-93
2022/01/19 11:36:22;;;;;;;3.67;1.27;;;;;;;9.17;34.53;100363.28;5095315;28;20175;-95
2022/01/19 11:39:08;;;;;;;3.30;1.70;;;;;;;9.26;35.25;100362.19;5095398;28;20166;-92
2022/01/19 11:41:43;;;;;;;8.20;1.10;;;;;;;9.18;35.70;100362.38;5094933;28;20216;-93
2022/01/19 11:44:16;;;;;;;5.47;1.27;;;;;;;9.12;34.73;100344.22;5095215;28;20620;-93
2022/01/19 11:46:49;;;;;;;1.70;1.27;;;;;;;8.93;35.25;100357.88;5095201;28;20830;-92
2022/01/19 11:49:19;;;;;;;2.73;1.27;;;;;;;8.97;35.77;100355.13;5096046;28;20247;-92
2022/01/19 11:51:53;;;;;;;3.47;1.37;;;;;;;8.97;34.69;100357.72;5094860;28;20623;-92
2022/01/19 11:54:21;;;;;;;2.47;1.23;;;;;;;8.92;35.13;100361.38;5095596;28;20203;-93
2022/01/19 11:56:59;;;;;;;1.53;0.77;;;;;;;8.53;35.53;100352.78;5094696;28;20250;-92
2022/01/19 11:59:47;;;;;;;3.20;1.20;;;;;;;8.51;35.91;100342.38;5094434;28;20591;-91
2022/01/19 12:02:23;;;;;;;2.40;1.30;;;;;;;8.57;35.97;100339.59;5089744;28;20221;-91
2022/01/19 12:04:52;;;;;;;2.97;1.33;;;;;;;8.88;35.92;100331.84;5095500;28;20202;-93
2022/01/19 12:07:41;;;;;;;2.17;1.17;;;;;;;8.76;34.89;100334.75;5094364;28;20180;-94
2022/01/19 12:10:12;;;;;;;4.17;1.00;;;;;;;8.89;35.17;100336.16;5094309;28;20266;-91
2022/01/19 12:12:47;;;;;;;2.70;1.50;;;;;;;9.13;34.94;100324.19;5095276;28;20221;-94
2022/01/19 12:15:57;;;;;;;2.60;1.20;;;;;;;9.53;34.53;100323.91;5095042;28;20182;-93
2022/01/19 12:18:52;;;;;;;2.33;1.03;;;;;;;8.98;34.78;100320.22;5094474;28;20166;-91
2022/01/19 12:21:21;;;;;;;1.93;0.80;;;;;;;9.08;34.77;100308.63;5095510;28;20196;-93
2022/01/19 12:23:48;;;;;;;4.33;1.00;;;;;;;8.86;34.09;100298.75;5094539;28;20180;-90
2022/01/19 12:26:14;;;;;;;2.47;0.90;;;;;;;8.72;34.33;100290.47;5094165;28;20178;-93
2022/01/19 12:28:49;;;;;;;2.13;1.00;;;;;;;8.95;34.56;100293.31;5094963;28;20182;-93
2022/01/19 12:31:24;;;;;;;3.37;1.40;;;;;;;9.44;35.00;100288.38;5094383;28;20172;-94
2022/01/19 12:34:04;;;;;;;4.20;1.73;;;;;;;9.41;34.16;100283.22;5094710;28;20184;-95
2022/01/19 12:36:51;;;;;;;3.13;1.47;;;;;;;9.72;33.89;100291.88;5094342;28;20186;-95
2022/01/19 12:39:26;;;;;;;2.43;1.23;;;;;;;9.65;33.10;100287.75;5095010;28;20198;-93
2022/01/19 12:42:00;;;;;;;3.80;1.63;;;;;;;9.48;33.35;100286.53;5093751;28;20200;-92
2022/01/19 12:44:34;;;;;;;3.27;1.50;;;;;;;9.88;33.26;100284.41;5093863;28;20194;-94
2022/01/19 12:47:01;;;;;;;2.43;0.90;;;;;;;9.89;32.79;100273.88;5093983;28;20180;-92
2022/01/19 12:49:28;;;;;;;2.23;1.13;;;;;;;9.85;32.52;100280.13;5093570;28;20180;-91
2022/01/19 12:51:54;;;;;;;3.77;1.17;;;;;;;9.70;32.85;100266.63;5093497;28;20183;-95
2022/01/19 12:54:28;;;;;;;5.90;1.67;;;;;;;9.85;33.76;100268.81;5093556;28;20177;-93
2022/01/19 12:56:55;;;;;;;3.17;1.13;;;;;;;9.97;32.91;100268.41;5093617;28;20164;-92
2022/01/19 12:59:21;;;;;;;1.90;0.93;;;;;;;10.09;32.67;100277.66;5093580;28;20575;-94
2022/01/19 13:01:46;;;;;;;7.17;1.27;;;;;;;10.07;32.24;100259.34;5093349;28;20214;-93
2022/01/19 13:04:23;;;;;;;2.87;1.47;;;;;;;10.40;32.12;100260.84;5093480;28;20184;-95
2022/01/19 13:06:48;;;;;;;3.70;1.30;;;;;;;10.15;31.84;100257.34;5093510;28;20176;-93
2022/01/19 13:09:24;;;;;;;3.07;1.13;;;;;;;10.32;32.75;100259.44;5093514;28;20176;-93